sensor_id;sensor_type;location;lat;lon;timestamp;P1;durP1;ratioP1;P2;durP2;ratioP2
16975;SDS011;8604;48.148;-1.786;2023-12-28T00:00:45;21.43;;;3.93;;
16975;SDS011;8604;48.148;-1.786;2023-12-28T00:03:14;17.53;;;3.70;;
16975;SDS011;8604;48.148;-1.786;2023-12-28T00:05:43;16.13;;;3.97;;
16975;SDS011;8604;48.148;-1.786;2023-12-28T00:08:11;18.70;;;4.20;;
16975;SDS011;8604;48.148;-1.786;2023-12-28T00:10:40;19.97;;;3.97;;
16975;SDS011;8604;48.148;-1.786;2023-12-28T00:13:10;21.00;;;3.77;;
16975;SDS011;8604;48.148;-1.786;2023-12-28T00:15:38;18.17;;;4.30;;
16975;SDS011;8604;48.148;-1.786;2023-12-28T00:18:06;18.07;;;3.87;;
16975;SDS011;8604;48.148;-1.786;2023-12-28T00:20:35;16.50;;;3.97;;
16975;SDS011;8604;48.148;-1.786;2023-12-28T00:23:03;17.27;;;4.23;;
16975;SDS011;8604;48.148;-1.786;2023-12-28T00:25:32;22.43;;;3.87;;
16975;SDS011;8604;48.148;-1.786;2023-12-28T00:28:01;16.67;;;3.90;;
16975;SDS011;8604;48.148;-1.786;2023-12-28T00:30:31;17.73;;;4.30;;
16975;SDS011;8604;48.148;-1.786;2023-12-28T00:32:59;17.03;;;3.93;;
16975;SDS011;8604;48.148;-1.786;2023-12-28T00:35:29;14.30;;;4.07;;
16975;SDS011;8604;48.148;-1.786;2023-12-28T00:37:57;21.67;;;3.90;;
16975;SDS011;8604;48.148;-1.786;2023-12-28T00:40:27;17.20;;;4.30;;
16975;SDS011;8604;48.148;-1.786;2023-12-28T00:42:58;18.40;;;4.40;;
16975;SDS011;8604;48.148;-1.786;2023-12-28T00:45:26;19.90;;;3.80;;
16975;SDS011;8604;48.148;-1.786;2023-12-28T00:47:56;20.30;;;4.10;;
16975;SDS011;8604;48.148;-1.786;2023-12-28T00:50:25;20.40;;;4.30;;
16975;SDS011;8604;48.148;-1.786;2023-12-28T00:52:58;17.93;;;4.20;;
16975;SDS011;8604;48.148;-1.786;2023-12-28T00:55:26;17.80;;;4.13;;
16975;SDS011;8604;48.148;-1.786;2023-12-28T00:57:55;18.00;;;4.03;;
16975;SDS011;8604;48.148;-1.786;2023-12-28T01:00:24;17.93;;;3.77;;
16975;SDS011;8604;48.148;-1.786;2023-12-28T01:02:53;19.07;;;4.10;;
16975;SDS011;8604;48.148;-1.786;2023-12-28T01:05:22;17.57;;;4.30;;
16975;SDS011;8604;48.148;-1.786;2023-12-28T01:07:52;15.13;;;4.30;;
16975;SDS011;8604;48.148;-1.786;2023-12-28T01:10:40;16.03;;;3.67;;
16975;SDS011;8604;48.148;-1.786;2023-12-28T01:13:08;20.70;;;4.37;;
16975;SDS011;8604;48.148;-1.786;2023-12-28T01:15:37;21.00;;;3.90;;
16975;SDS011;8604;48.148;-1.786;2023-12-28T01:18:05;18.47;;;4.13;;
16975;SDS011;8604;48.148;-1.786;2023-12-28T01:20:35;18.80;;;4.20;;
16975;SDS011;8604;48.148;-1.786;2023-12-28T01:23:04;16.60;;;4.53;;
16975;SDS011;8604;48.148;-1.786;2023-12-28T01:25:32;17.83;;;4.10;;
16975;SDS011;8604;48.148;-1.786;2023-12-28T01:28:02;15.63;;;3.87;;
16975;SDS011;8604;48.148;-1.786;2023-12-28T01:30:31;19.57;;;4.27;;
16975;SDS011;8604;48.148;-1.786;2023-12-28T01:33:02;20.63;;;4.30;;
16975;SDS011;8604;48.148;-1.786;2023-12-28T01:35:31;21.03;;;4.37;;
16975;SDS011;8604;48.148;-1.786;2023-12-28T01:38:01;18.20;;;4.10;;
16975;SDS011;8604;48.148;-1.786;2023-12-28T01:40:30;18.13;;;3.70;;
16975;SDS011;8604;48.148;-1.786;2023-12-28T01:42:58;18.00;;;3.83;;
16975;SDS011;8604;48.148;-1.786;2023-12-28T01:45:27;17.30;;;3.70;;
16975;SDS011;8604;48.148;-1.786;2023-12-28T01:47:55;16.43;;;3.57;;
16975;SDS011;8604;48.148;-1.786;2023-12-28T01:50:27;15.33;;;3.40;;
16975;SDS011;8604;48.148;-1.786;2023-12-28T01:52:57;18.53;;;3.53;;
16975;SDS011;8604;48.148;-1.786;2023-12-28T01:55:29;15.27;;;3.63;;
16975;SDS011;8604;48.148;-1.786;2023-12-28T01:57:59;16.20;;;4.00;;
16975;SDS011;8604;48.148;-1.786;2023-12-28T02:00:27;17.07;;;3.80;;
16975;SDS011;8604;48.148;-1.786;2023-12-28T02:02:58;20.80;;;3.97;;
16975;SDS011;8604;48.148;-1.786;2023-12-28T02:05:27;18.13;;;4.53;;
16975;SDS011;8604;48.148;-1.786;2023-12-28T02:07:56;19.67;;;4.30;;
16975;SDS011;8604;48.148;-1.786;2023-12-28T02:10:24;18.90;;;4.43;;
16975;SDS011;8604;48.148;-1.786;2023-12-28T02:12:55;17.43;;;4.10;;
16975;SDS011;8604;48.148;-1.786;2023-12-28T02:15:24;19.70;;;4.40;;
16975;SDS011;8604;48.148;-1.786;2023-12-28T02:17:54;17.70;;;3.77;;
16975;SDS011;8604;48.148;-1.786;2023-12-28T02:20:28;20.60;;;4.20;;
16975;SDS011;8604;48.148;-1.786;2023-12-28T02:22:57;19.70;;;4.43;;
16975;SDS011;8604;48.148;-1.786;2023-12-28T02:25:27;27.10;;;5.13;;
16975;SDS011;8604;48.148;-1.786;2023-12-28T02:27:55;20.03;;;4.23;;
16975;SDS011;8604;48.148;-1.786;2023-12-28T02:30:25;16.80;;;3.83;;
16975;SDS011;8604;48.148;-1.786;2023-12-28T02:32:55;19.37;;;4.47;;
16975;SDS011;8604;48.148;-1.786;2023-12-28T02:35:34;23.57;;;4.40;;
16975;SDS011;8604;48.148;-1.786;2023-12-28T02:38:08;21.37;;;4.40;;
16975;SDS011;8604;48.148;-1.786;2023-12-28T02:40:40;21.80;;;4.67;;
16975;SDS011;8604;48.148;-1.786;2023-12-28T02:43:11;22.10;;;4.57;;
16975;SDS011;8604;48.148;-1.786;2023-12-28T02:45:39;18.47;;;4.43;;
16975;SDS011;8604;48.148;-1.786;2023-12-28T02:48:08;19.40;;;4.23;;
16975;SDS011;8604;48.148;-1.786;2023-12-28T02:50:36;18.27;;;3.87;;
16975;SDS011;8604;48.148;-1.786;2023-12-28T02:53:05;21.80;;;4.43;;
16975;SDS011;8604;48.148;-1.786;2023-12-28T02:55:34;24.30;;;4.57;;
16975;SDS011;8604;48.148;-1.786;2023-12-28T02:58:04;22.87;;;4.67;;
16975;SDS011;8604;48.148;-1.786;2023-12-28T03:00:33;18.10;;;4.30;;
16975;SDS011;8604;48.148;-1.786;2023-12-28T03:03:01;19.90;;;4.13;;
16975;SDS011;8604;48.148;-1.786;2023-12-28T03:05:30;16.90;;;3.80;;
16975;SDS011;8604;48.148;-1.786;2023-12-28T03:07:58;22.60;;;4.50;;
16975;SDS011;8604;48.148;-1.786;2023-12-28T03:10:27;16.93;;;3.50;;
16975;SDS011;8604;48.148;-1.786;2023-12-28T03:12:55;21.87;;;4.33;;
16975;SDS011;8604;48.148;-1.786;2023-12-28T03:15:26;21.97;;;4.50;;
16975;SDS011;8604;48.148;-1.786;2023-12-28T03:17:54;26.20;;;4.23;;
16975;SDS011;8604;48.148;-1.786;2023-12-28T03:20:23;20.63;;;4.80;;
16975;SDS011;8604;48.148;-1.786;2023-12-28T03:22:52;18.00;;;4.20;;
16975;SDS011;8604;48.148;-1.786;2023-12-28T03:25:20;21.27;;;4.10;;
16975;SDS011;8604;48.148;-1.786;2023-12-28T03:27:48;19.83;;;4.37;;
16975;SDS011;8604;48.148;-1.786;2023-12-28T03:30:17;23.03;;;4.77;;
16975;SDS011;8604;48.148;-1.786;2023-12-28T03:32:47;22.63;;;4.70;;
16975;SDS011;8604;48.148;-1.786;2023-12-28T03:35:16;20.23;;;4.27;;
16975;SDS011;8604;48.148;-1.786;2023-12-28T03:37:45;24.80;;;4.93;;
16975;SDS011;8604;48.148;-1.786;2023-12-28T03:40:13;25.80;;;4.83;;
16975;SDS011;8604;48.148;-1.786;2023-12-28T03:42:45;20.47;;;4.57;;
16975;SDS011;8604;48.148;-1.786;2023-12-28T03:45:14;23.43;;;5.03;;
16975;SDS011;8604;48.148;-1.786;2023-12-28T03:47:42;19.13;;;4.40;;
16975;SDS011;8604;48.148;-1.786;2023-12-28T03:50:12;23.57;;;4.70;;
16975;SDS011;8604;48.148;-1.786;2023-12-28T03:52:41;20.60;;;4.30;;
16975;SDS011;8604;48.148;-1.786;2023-12-28T03:55:09;23.07;;;5.07;;
16975;SDS011;8604;48.148;-1.786;2023-12-28T03:57:38;21.13;;;4.60;;
16975;SDS011;8604;48.148;-1.786;2023-12-28T04:00:09;22.47;;;4.53;;
16975;SDS011;8604;48.148;-1.786;2023-12-28T04:02:40;22.73;;;4.43;;
16975;SDS011;8604;48.148;-1.786;2023-12-28T04:05:08;23.57;;;4.33;;
16975;SDS011;8604;48.148;-1.786;2023-12-28T04:07:38;20.40;;;4.03;;
16975;SDS011;8604;48.148;-1.786;2023-12-28T04:10:07;18.07;;;4.40;;
16975;SDS011;8604;48.148;-1.786;2023-12-28T04:12:37;22.10;;;4.70;;
16975;SDS011;8604;48.148;-1.786;2023-12-28T04:15:06;20.60;;;4.23;;
16975;SDS011;8604;48.148;-1.786;2023-12-28T04:17:35;23.00;;;4.40;;
16975;SDS011;8604;48.148;-1.786;2023-12-28T04:20:05;21.30;;;4.93;;
16975;SDS011;8604;48.148;-1.786;2023-12-28T04:22:34;21.13;;;4.90;;
16975;SDS011;8604;48.148;-1.786;2023-12-28T04:25:04;23.23;;;4.67;;
16975;SDS011;8604;48.148;-1.786;2023-12-28T04:27:33;22.23;;;4.67;;
16975;SDS011;8604;48.148;-1.786;2023-12-28T04:30:01;23.43;;;4.70;;
16975;SDS011;8604;48.148;-1.786;2023-12-28T04:32:31;20.17;;;5.13;;
16975;SDS011;8604;48.148;-1.786;2023-12-28T04:35:02;22.10;;;5.27;;
16975;SDS011;8604;48.148;-1.786;2023-12-28T04:37:31;21.33;;;4.80;;
16975;SDS011;8604;48.148;-1.786;2023-12-28T04:40:00;22.03;;;4.90;;
16975;SDS011;8604;48.148;-1.786;2023-12-28T04:42:32;23.50;;;4.33;;
16975;SDS011;8604;48.148;-1.786;2023-12-28T04:45:01;22.97;;;4.53;;
16975;SDS011;8604;48.148;-1.786;2023-12-28T04:47:30;24.27;;;4.50;;
16975;SDS011;8604;48.148;-1.786;2023-12-28T04:49:58;25.17;;;4.73;;
16975;SDS011;8604;48.148;-1.786;2023-12-28T04:52:27;23.87;;;4.70;;
16975;SDS011;8604;48.148;-1.786;2023-12-28T04:54:56;23.13;;;5.00;;
16975;SDS011;8604;48.148;-1.786;2023-12-28T04:57:24;23.13;;;4.97;;
16975;SDS011;8604;48.148;-1.786;2023-12-28T04:59:56;24.63;;;4.83;;
16975;SDS011;8604;48.148;-1.786;2023-12-28T05:02:24;18.60;;;4.10;;
16975;SDS011;8604;48.148;-1.786;2023-12-28T05:04:53;18.80;;;4.77;;
16975;SDS011;8604;48.148;-1.786;2023-12-28T05:07:22;19.73;;;4.20;;
16975;SDS011;8604;48.148;-1.786;2023-12-28T05:09:50;22.90;;;4.60;;
16975;SDS011;8604;48.148;-1.786;2023-12-28T05:12:19;20.17;;;4.53;;
16975;SDS011;8604;48.148;-1.786;2023-12-28T05:14:48;20.10;;;4.40;;
16975;SDS011;8604;48.148;-1.786;2023-12-28T05:17:18;23.43;;;5.10;;
16975;SDS011;8604;48.148;-1.786;2023-12-28T05:19:46;19.20;;;4.60;;
16975;SDS011;8604;48.148;-1.786;2023-12-28T05:22:14;30.30;;;5.10;;
16975;SDS011;8604;48.148;-1.786;2023-12-28T05:24:43;22.03;;;4.40;;
16975;SDS011;8604;48.148;-1.786;2023-12-28T05:27:11;19.70;;;4.33;;
16975;SDS011;8604;48.148;-1.786;2023-12-28T05:29:39;22.37;;;4.33;;
16975;SDS011;8604;48.148;-1.786;2023-12-28T05:32:08;23.20;;;5.07;;
16975;SDS011;8604;48.148;-1.786;2023-12-28T05:34:37;24.47;;;4.90;;
16975;SDS011;8604;48.148;-1.786;2023-12-28T05:37:06;21.67;;;5.07;;
16975;SDS011;8604;48.148;-1.786;2023-12-28T05:39:34;21.77;;;4.70;;
16975;SDS011;8604;48.148;-1.786;2023-12-28T05:42:03;26.80;;;5.27;;
16975;SDS011;8604;48.148;-1.786;2023-12-28T05:44:31;24.07;;;4.80;;
16975;SDS011;8604;48.148;-1.786;2023-12-28T05:47:01;25.90;;;4.30;;
16975;SDS011;8604;48.148;-1.786;2023-12-28T05:49:30;22.47;;;4.27;;
16975;SDS011;8604;48.148;-1.786;2023-12-28T05:52:00;20.77;;;4.13;;
16975;SDS011;8604;48.148;-1.786;2023-12-28T05:54:28;23.73;;;4.50;;
16975;SDS011;8604;48.148;-1.786;2023-12-28T05:56:57;23.03;;;5.17;;
16975;SDS011;8604;48.148;-1.786;2023-12-28T05:59:26;25.23;;;5.10;;
16975;SDS011;8604;48.148;-1.786;2023-12-28T06:01:55;18.93;;;4.43;;
16975;SDS011;8604;48.148;-1.786;2023-12-28T06:04:23;19.53;;;4.40;;
16975;SDS011;8604;48.148;-1.786;2023-12-28T06:06:51;23.77;;;4.73;;
16975;SDS011;8604;48.148;-1.786;2023-12-28T06:09:21;20.17;;;4.07;;
16975;SDS011;8604;48.148;-1.786;2023-12-28T06:11:50;15.37;;;4.00;;
16975;SDS011;8604;48.148;-1.786;2023-12-28T06:14:18;23.57;;;4.50;;
16975;SDS011;8604;48.148;-1.786;2023-12-28T06:16:46;19.33;;;4.80;;
16975;SDS011;8604;48.148;-1.786;2023-12-28T06:19:14;28.80;;;5.40;;
16975;SDS011;8604;48.148;-1.786;2023-12-28T06:21:43;17.23;;;3.97;;
16975;SDS011;8604;48.148;-1.786;2023-12-28T06:24:11;26.83;;;5.30;;
16975;SDS011;8604;48.148;-1.786;2023-12-28T06:26:41;21.43;;;4.77;;
16975;SDS011;8604;48.148;-1.786;2023-12-28T06:29:10;18.47;;;4.30;;
16975;SDS011;8604;48.148;-1.786;2023-12-28T06:31:38;17.30;;;4.27;;
16975;SDS011;8604;48.148;-1.786;2023-12-28T06:34:07;20.47;;;4.40;;
16975;SDS011;8604;48.148;-1.786;2023-12-28T06:36:36;22.83;;;4.40;;
16975;SDS011;8604;48.148;-1.786;2023-12-28T06:39:04;25.20;;;5.43;;
16975;SDS011;8604;48.148;-1.786;2023-12-28T06:41:33;16.43;;;3.63;;
16975;SDS011;8604;48.148;-1.786;2023-12-28T06:44:03;21.57;;;4.57;;
16975;SDS011;8604;48.148;-1.786;2023-12-28T06:50:41;21.57;;;4.20;;
16975;SDS011;8604;48.148;-1.786;2023-12-28T06:53:23;21.87;;;4.53;;
16975;SDS011;8604;48.148;-1.786;2023-12-28T06:56:22;18.30;;;4.07;;
16975;SDS011;8604;48.148;-1.786;2023-12-28T06:59:11;19.53;;;4.07;;
16975;SDS011;8604;48.148;-1.786;2023-12-28T07:02:03;18.63;;;4.57;;
16975;SDS011;8604;48.148;-1.786;2023-12-28T07:04:40;24.80;;;4.53;;
16975;SDS011;8604;48.148;-1.786;2023-12-28T07:07:33;24.17;;;4.37;;
16975;SDS011;8604;48.148;-1.786;2023-12-28T07:10:28;24.77;;;4.73;;
16975;SDS011;8604;48.148;-1.786;2023-12-28T07:13:18;18.63;;;4.17;;
16975;SDS011;8604;48.148;-1.786;2023-12-28T07:16:19;18.17;;;4.70;;
16975;SDS011;8604;48.148;-1.786;2023-12-28T07:18:57;20.90;;;4.23;;
16975;SDS011;8604;48.148;-1.786;2023-12-28T07:21:30;20.90;;;4.53;;
16975;SDS011;8604;48.148;-1.786;2023-12-28T07:24:14;22.57;;;4.60;;
16975;SDS011;8604;48.148;-1.786;2023-12-28T07:27:09;22.80;;;4.90;;
16975;SDS011;8604;48.148;-1.786;2023-12-28T07:30:09;19.40;;;4.23;;
16975;SDS011;8604;48.148;-1.786;2023-12-28T07:32:58;22.03;;;4.60;;
16975;SDS011;8604;48.148;-1.786;2023-12-28T07:36:18;19.17;;;3.87;;
16975;SDS011;8604;48.148;-1.786;2023-12-28T07:39:03;24.77;;;4.43;;
16975;SDS011;8604;48.148;-1.786;2023-12-28T07:41:33;23.80;;;4.57;;
16975;SDS011;8604;48.148;-1.786;2023-12-28T07:44:17;20.60;;;4.23;;
16975;SDS011;8604;48.148;-1.786;2023-12-28T07:46:51;29.50;;;4.87;;
16975;SDS011;8604;48.148;-1.786;2023-12-28T07:49:21;18.53;;;4.20;;
16975;SDS011;8604;48.148;-1.786;2023-12-28T07:51:50;19.67;;;4.73;;
16975;SDS011;8604;48.148;-1.786;2023-12-28T07:54:18;17.37;;;4.47;;
16975;SDS011;8604;48.148;-1.786;2023-12-28T07:56:47;21.00;;;4.93;;
16975;SDS011;8604;48.148;-1.786;2023-12-28T07:59:15;19.23;;;4.90;;
16975;SDS011;8604;48.148;-1.786;2023-12-28T08:01:44;22.57;;;5.30;;
16975;SDS011;8604;48.148;-1.786;2023-12-28T08:04:12;22.00;;;4.40;;
16975;SDS011;8604;48.148;-1.786;2023-12-28T08:06:42;23.57;;;4.80;;
16975;SDS011;8604;48.148;-1.786;2023-12-28T08:09:11;25.63;;;6.50;;
16975;SDS011;8604;48.148;-1.786;2023-12-28T08:11:39;23.60;;;7.00;;
16975;SDS011;8604;48.148;-1.786;2023-12-28T08:14:08;23.30;;;8.10;;
16975;SDS011;8604;48.148;-1.786;2023-12-28T08:16:37;24.83;;;5.17;;
16975;SDS011;8604;48.148;-1.786;2023-12-28T08:19:05;24.67;;;5.53;;
16975;SDS011;8604;48.148;-1.786;2023-12-28T08:21:33;20.90;;;5.03;;
16975;SDS011;8604;48.148;-1.786;2023-12-28T08:24:04;27.00;;;5.50;;
16975;SDS011;8604;48.148;-1.786;2023-12-28T08:26:32;27.47;;;5.13;;
16975;SDS011;8604;48.148;-1.786;2023-12-28T08:29:01;24.73;;;4.70;;
16975;SDS011;8604;48.148;-1.786;2023-12-28T08:31:29;21.07;;;4.27;;
16975;SDS011;8604;48.148;-1.786;2023-12-28T08:33:58;28.17;;;4.93;;
16975;SDS011;8604;48.148;-1.786;2023-12-28T08:36:27;25.83;;;4.97;;
16975;SDS011;8604;48.148;-1.786;2023-12-28T08:38:56;20.73;;;4.67;;
16975;SDS011;8604;48.148;-1.786;2023-12-28T08:41:25;22.33;;;4.47;;
16975;SDS011;8604;48.148;-1.786;2023-12-28T08:43:54;25.07;;;4.57;;
16975;SDS011;8604;48.148;-1.786;2023-12-28T08:46:22;24.27;;;4.50;;
16975;SDS011;8604;48.148;-1.786;2023-12-28T08:48:52;22.50;;;4.90;;
16975;SDS011;8604;48.148;-1.786;2023-12-28T08:51:21;22.53;;;4.57;;
16975;SDS011;8604;48.148;-1.786;2023-12-28T08:53:49;18.60;;;4.30;;
16975;SDS011;8604;48.148;-1.786;2023-12-28T08:56:19;19.07;;;4.90;;
16975;SDS011;8604;48.148;-1.786;2023-12-28T08:58:50;20.20;;;4.60;;
16975;SDS011;8604;48.148;-1.786;2023-12-28T09:01:19;20.07;;;4.30;;
16975;SDS011;8604;48.148;-1.786;2023-12-28T09:03:49;23.00;;;4.27;;
16975;SDS011;8604;48.148;-1.786;2023-12-28T09:06:19;21.20;;;4.80;;
16975;SDS011;8604;48.148;-1.786;2023-12-28T09:08:49;19.67;;;3.93;;
16975;SDS011;8604;48.148;-1.786;2023-12-28T09:11:18;22.27;;;4.53;;
16975;SDS011;8604;48.148;-1.786;2023-12-28T09:13:49;22.30;;;4.67;;
16975;SDS011;8604;48.148;-1.786;2023-12-28T09:16:18;21.40;;;4.93;;
16975;SDS011;8604;48.148;-1.786;2023-12-28T09:18:46;19.30;;;4.47;;
16975;SDS011;8604;48.148;-1.786;2023-12-28T09:21:15;20.10;;;4.57;;
16975;SDS011;8604;48.148;-1.786;2023-12-28T09:23:43;20.67;;;4.57;;
16975;SDS011;8604;48.148;-1.786;2023-12-28T09:26:12;21.57;;;4.87;;
16975;SDS011;8604;48.148;-1.786;2023-12-28T09:28:40;21.57;;;4.43;;
16975;SDS011;8604;48.148;-1.786;2023-12-28T09:31:10;19.57;;;4.17;;
16975;SDS011;8604;48.148;-1.786;2023-12-28T09:33:39;19.90;;;4.60;;
16975;SDS011;8604;48.148;-1.786;2023-12-28T09:36:09;24.83;;;5.20;;
16975;SDS011;8604;48.148;-1.786;2023-12-28T09:38:39;16.30;;;3.93;;
16975;SDS011;8604;48.148;-1.786;2023-12-28T09:41:09;27.43;;;5.33;;
16975;SDS011;8604;48.148;-1.786;2023-12-28T09:43:41;19.43;;;4.40;;
16975;SDS011;8604;48.148;-1.786;2023-12-28T09:46:21;18.80;;;4.37;;
16975;SDS011;8604;48.148;-1.786;2023-12-28T09:48:50;17.67;;;4.03;;
16975;SDS011;8604;48.148;-1.786;2023-12-28T09:51:20;17.57;;;4.30;;
16975;SDS011;8604;48.148;-1.786;2023-12-28T09:53:49;22.90;;;3.90;;
16975;SDS011;8604;48.148;-1.786;2023-12-28T09:56:17;21.63;;;4.40;;
16975;SDS011;8604;48.148;-1.786;2023-12-28T09:58:46;15.47;;;3.83;;
16975;SDS011;8604;48.148;-1.786;2023-12-28T10:01:18;20.13;;;4.00;;
16975;SDS011;8604;48.148;-1.786;2023-12-28T10:03:48;21.33;;;4.90;;
16975;SDS011;8604;48.148;-1.786;2023-12-28T10:06:17;19.07;;;4.03;;
16975;SDS011;8604;48.148;-1.786;2023-12-28T10:08:45;16.33;;;4.17;;
16975;SDS011;8604;48.148;-1.786;2023-12-28T10:11:15;19.77;;;4.00;;
16975;SDS011;8604;48.148;-1.786;2023-12-28T10:13:44;19.33;;;4.47;;
16975;SDS011;8604;48.148;-1.786;2023-12-28T10:16:13;19.73;;;4.20;;
16975;SDS011;8604;48.148;-1.786;2023-12-28T10:18:43;16.03;;;4.03;;
16975;SDS011;8604;48.148;-1.786;2023-12-28T10:21:13;18.33;;;4.27;;
16975;SDS011;8604;48.148;-1.786;2023-12-28T10:23:41;19.03;;;3.70;;
16975;SDS011;8604;48.148;-1.786;2023-12-28T10:26:10;22.30;;;4.60;;
16975;SDS011;8604;48.148;-1.786;2023-12-28T10:28:39;19.33;;;3.93;;
16975;SDS011;8604;48.148;-1.786;2023-12-28T10:31:09;16.10;;;4.10;;
16975;SDS011;8604;48.148;-1.786;2023-12-28T10:33:39;17.93;;;3.90;;
16975;SDS011;8604;48.148;-1.786;2023-12-28T10:36:09;18.10;;;4.27;;
16975;SDS011;8604;48.148;-1.786;2023-12-28T10:38:39;18.27;;;4.40;;
16975;SDS011;8604;48.148;-1.786;2023-12-28T10:41:11;21.70;;;11.00;;
16975;SDS011;8604;48.148;-1.786;2023-12-28T10:43:43;25.10;;;11.40;;
16975;SDS011;8604;48.148;-1.786;2023-12-28T10:46:18;18.07;;;5.70;;
16975;SDS011;8604;48.148;-1.786;2023-12-28T10:48:53;19.23;;;5.43;;
16975;SDS011;8604;48.148;-1.786;2023-12-28T10:51:27;19.40;;;7.40;;
16975;SDS011;8604;48.148;-1.786;2023-12-28T10:54:02;22.40;;;5.53;;
16975;SDS011;8604;48.148;-1.786;2023-12-28T10:56:41;17.00;;;5.20;;
16975;SDS011;8604;48.148;-1.786;2023-12-28T10:59:14;18.27;;;4.73;;
16975;SDS011;8604;48.148;-1.786;2023-12-28T11:01:47;14.93;;;3.83;;
16975;SDS011;8604;48.148;-1.786;2023-12-28T11:04:23;18.80;;;4.33;;
16975;SDS011;8604;48.148;-1.786;2023-12-28T11:06:54;23.80;;;5.17;;
16975;SDS011;8604;48.148;-1.786;2023-12-28T11:09:26;18.77;;;4.77;;
16975;SDS011;8604;48.148;-1.786;2023-12-28T11:11:58;20.97;;;7.10;;
16975;SDS011;8604;48.148;-1.786;2023-12-28T11:14:28;14.80;;;4.30;;
16975;SDS011;8604;48.148;-1.786;2023-12-28T11:16:57;14.73;;;3.90;;
16975;SDS011;8604;48.148;-1.786;2023-12-28T11:19:28;16.53;;;3.70;;
16975;SDS011;8604;48.148;-1.786;2023-12-28T11:21:58;19.70;;;3.57;;
16975;SDS011;8604;48.148;-1.786;2023-12-28T11:24:30;17.23;;;3.63;;
16975;SDS011;8604;48.148;-1.786;2023-12-28T11:27:00;15.77;;;3.87;;
16975;SDS011;8604;48.148;-1.786;2023-12-28T11:29:35;15.30;;;3.30;;
16975;SDS011;8604;48.148;-1.786;2023-12-28T11:32:04;14.90;;;3.43;;
16975;SDS011;8604;48.148;-1.786;2023-12-28T11:34:32;16.97;;;3.80;;
16975;SDS011;8604;48.148;-1.786;2023-12-28T11:37:02;13.40;;;3.20;;
16975;SDS011;8604;48.148;-1.786;2023-12-28T11:39:35;13.93;;;3.40;;
16975;SDS011;8604;48.148;-1.786;2023-12-28T11:42:06;14.27;;;3.30;;
16975;SDS011;8604;48.148;-1.786;2023-12-28T11:44:37;14.57;;;3.37;;
16975;SDS011;8604;48.148;-1.786;2023-12-28T11:47:16;19.07;;;4.13;;
16975;SDS011;8604;48.148;-1.786;2023-12-28T11:49:48;13.77;;;3.47;;
16975;SDS011;8604;48.148;-1.786;2023-12-28T11:52:22;15.00;;;3.53;;
16975;SDS011;8604;48.148;-1.786;2023-12-28T11:54:53;17.43;;;3.57;;
16975;SDS011;8604;48.148;-1.786;2023-12-28T11:57:22;16.37;;;4.00;;
16975;SDS011;8604;48.148;-1.786;2023-12-28T11:59:52;14.17;;;3.37;;
16975;SDS011;8604;48.148;-1.786;2023-12-28T12:02:23;14.37;;;3.00;;
16975;SDS011;8604;48.148;-1.786;2023-12-28T12:04:52;14.67;;;3.43;;
16975;SDS011;8604;48.148;-1.786;2023-12-28T12:07:22;15.63;;;3.50;;
16975;SDS011;8604;48.148;-1.786;2023-12-28T12:09:56;16.37;;;3.77;;
16975;SDS011;8604;48.148;-1.786;2023-12-28T12:12:25;14.93;;;3.40;;
16975;SDS011;8604;48.148;-1.786;2023-12-28T12:14:55;16.43;;;4.07;;
16975;SDS011;8604;48.148;-1.786;2023-12-28T12:17:24;17.07;;;3.10;;
16975;SDS011;8604;48.148;-1.786;2023-12-28T12:19:53;12.77;;;3.17;;
16975;SDS011;8604;48.148;-1.786;2023-12-28T12:22:25;15.17;;;3.00;;
16975;SDS011;8604;48.148;-1.786;2023-12-28T12:24:57;14.40;;;3.20;;
16975;SDS011;8604;48.148;-1.786;2023-12-28T12:27:30;14.87;;;3.23;;
16975;SDS011;8604;48.148;-1.786;2023-12-28T12:29:59;14.50;;;3.30;;
16975;SDS011;8604;48.148;-1.786;2023-12-28T12:32:28;16.00;;;3.47;;
16975;SDS011;8604;48.148;-1.786;2023-12-28T12:34:57;18.50;;;3.60;;
16975;SDS011;8604;48.148;-1.786;2023-12-28T12:37:25;12.87;;;3.30;;
16975;SDS011;8604;48.148;-1.786;2023-12-28T12:39:54;14.40;;;3.43;;
16975;SDS011;8604;48.148;-1.786;2023-12-28T12:42:24;18.33;;;3.50;;
16975;SDS011;8604;48.148;-1.786;2023-12-28T12:44:53;14.93;;;3.23;;
16975;SDS011;8604;48.148;-1.786;2023-12-28T12:47:22;14.47;;;2.90;;
16975;SDS011;8604;48.148;-1.786;2023-12-28T12:49:51;12.20;;;3.10;;
16975;SDS011;8604;48.148;-1.786;2023-12-28T12:52:19;17.67;;;3.60;;
16975;SDS011;8604;48.148;-1.786;2023-12-28T12:54:52;18.03;;;3.70;;
16975;SDS011;8604;48.148;-1.786;2023-12-28T12:57:23;16.20;;;3.27;;
16975;SDS011;8604;48.148;-1.786;2023-12-28T12:59:53;13.80;;;3.17;;
16975;SDS011;8604;48.148;-1.786;2023-12-28T13:02:22;12.47;;;3.30;;
16975;SDS011;8604;48.148;-1.786;2023-12-28T13:04:51;15.73;;;3.00;;
16975;SDS011;8604;48.148;-1.786;2023-12-28T13:07:20;15.70;;;3.30;;
16975;SDS011;8604;48.148;-1.786;2023-12-28T13:09:48;10.47;;;2.70;;
16975;SDS011;8604;48.148;-1.786;2023-12-28T13:12:17;13.60;;;3.03;;
16975;SDS011;8604;48.148;-1.786;2023-12-28T13:14:47;14.67;;;3.00;;
16975;SDS011;8604;48.148;-1.786;2023-12-28T13:17:15;12.90;;;3.00;;
16975;SDS011;8604;48.148;-1.786;2023-12-28T13:19:44;14.87;;;3.00;;
16975;SDS011;8604;48.148;-1.786;2023-12-28T13:22:13;18.20;;;2.97;;
16975;SDS011;8604;48.148;-1.786;2023-12-28T13:24:41;10.37;;;2.83;;
16975;SDS011;8604;48.148;-1.786;2023-12-28T13:27:09;13.30;;;3.13;;
16975;SDS011;8604;48.148;-1.786;2023-12-28T13:29:38;13.70;;;3.17;;
16975;SDS011;8604;48.148;-1.786;2023-12-28T13:32:08;14.70;;;3.00;;
16975;SDS011;8604;48.148;-1.786;2023-12-28T13:34:37;13.10;;;3.07;;
16975;SDS011;8604;48.148;-1.786;2023-12-28T13:37:05;12.40;;;2.83;;
16975;SDS011;8604;48.148;-1.786;2023-12-28T13:39:34;12.73;;;2.93;;
16975;SDS011;8604;48.148;-1.786;2023-12-28T13:42:06;12.63;;;2.70;;
16975;SDS011;8604;48.148;-1.786;2023-12-28T13:44:34;13.30;;;2.80;;
16975;SDS011;8604;48.148;-1.786;2023-12-28T13:47:03;15.03;;;3.07;;
16975;SDS011;8604;48.148;-1.786;2023-12-28T13:49:36;14.67;;;3.07;;
16975;SDS011;8604;48.148;-1.786;2023-12-28T13:52:04;13.23;;;3.10;;
16975;SDS011;8604;48.148;-1.786;2023-12-28T13:54:33;11.53;;;2.70;;
16975;SDS011;8604;48.148;-1.786;2023-12-28T13:57:02;18.73;;;3.40;;
16975;SDS011;8604;48.148;-1.786;2023-12-28T13:59:30;13.60;;;3.13;;
16975;SDS011;8604;48.148;-1.786;2023-12-28T14:01:59;12.23;;;2.73;;
16975;SDS011;8604;48.148;-1.786;2023-12-28T14:04:27;12.50;;;3.40;;
16975;SDS011;8604;48.148;-1.786;2023-12-28T14:06:57;20.87;;;3.57;;
16975;SDS011;8604;48.148;-1.786;2023-12-28T14:09:26;13.20;;;3.37;;
16975;SDS011;8604;48.148;-1.786;2023-12-28T14:11:54;13.83;;;3.17;;
16975;SDS011;8604;48.148;-1.786;2023-12-28T14:14:23;17.30;;;3.43;;
16975;SDS011;8604;48.148;-1.786;2023-12-28T14:16:51;15.17;;;3.20;;
16975;SDS011;8604;48.148;-1.786;2023-12-28T14:19:20;15.70;;;2.90;;
16975;SDS011;8604;48.148;-1.786;2023-12-28T14:21:49;12.87;;;3.30;;
16975;SDS011;8604;48.148;-1.786;2023-12-28T14:24:20;15.07;;;3.30;;
16975;SDS011;8604;48.148;-1.786;2023-12-28T14:26:49;15.03;;;2.93;;
16975;SDS011;8604;48.148;-1.786;2023-12-28T14:29:21;16.83;;;3.23;;
16975;SDS011;8604;48.148;-1.786;2023-12-28T14:31:50;12.20;;;2.87;;
16975;SDS011;8604;48.148;-1.786;2023-12-28T14:34:20;16.53;;;3.03;;
16975;SDS011;8604;48.148;-1.786;2023-12-28T14:36:49;13.53;;;2.93;;
16975;SDS011;8604;48.148;-1.786;2023-12-28T14:39:22;13.43;;;3.03;;
16975;SDS011;8604;48.148;-1.786;2023-12-28T14:41:51;12.40;;;2.87;;
16975;SDS011;8604;48.148;-1.786;2023-12-28T14:44:19;13.30;;;3.20;;
16975;SDS011;8604;48.148;-1.786;2023-12-28T14:46:48;11.67;;;2.97;;
16975;SDS011;8604;48.148;-1.786;2023-12-28T14:49:17;12.57;;;3.40;;
16975;SDS011;8604;48.148;-1.786;2023-12-28T14:51:45;15.43;;;3.40;;
16975;SDS011;8604;48.148;-1.786;2023-12-28T14:54:14;12.10;;;3.10;;
16975;SDS011;8604;48.148;-1.786;2023-12-28T14:56:44;12.93;;;2.93;;